createdAt,value
2023-01-26T00:00:23.368Z,9.90
2023-01-26T00:01:23.445Z,10.60
2023-01-26T00:02:23.129Z,10.40
2023-01-26T00:03:23.485Z,10.60
2023-01-26T00:04:22.879Z,8.70
2023-01-26T00:05:23.630Z,9.30
2023-01-26T00:06:23.037Z,9.30
2023-01-26T00:07:22.841Z,9.70
2023-01-26T00:08:23.317Z,8.90
2023-01-26T00:09:22.848Z,10.60
2023-01-26T00:10:23.736Z,9.70
2023-01-26T00:11:22.869Z,8.40
2023-01-26T00:12:22.766Z,10.00
2023-01-26T00:13:23.002Z,9.50
2023-01-26T00:14:23.592Z,10.40
2023-01-26T00:15:23.278Z,9.20
2023-01-26T00:16:23.665Z,9.20
2023-01-26T00:17:23.390Z,10.50
2023-01-26T00:18:23.456Z,9.80
2023-01-26T00:19:23.574Z,10.70
2023-01-26T00:20:23.532Z,10.30
2023-01-26T00:21:22.843Z,9.00
2023-01-26T00:22:22.775Z,11.30
2023-01-26T00:23:22.651Z,11.20
2023-01-26T00:24:22.723Z,10.60
2023-01-26T00:25:22.738Z,10.30
2023-01-26T00:26:22.777Z,10.70
2023-01-26T00:27:22.866Z,10.30
2023-01-26T00:28:22.622Z,10.80
2023-01-26T00:29:22.692Z,9.70
2023-01-26T00:30:23.084Z,10.90
2023-01-26T00:31:23.142Z,9.90
2023-01-26T00:32:23.177Z,9.40
2023-01-26T00:33:22.502Z,12.20
2023-01-26T00:34:22.547Z,10.70
2023-01-26T00:35:22.562Z,10.80
2023-01-26T00:36:23.306Z,9.90
2023-01-26T00:37:22.482Z,10.60
2023-01-26T00:38:22.460Z,10.30
2023-01-26T00:39:22.482Z,10.10
2023-01-26T00:40:22.472Z,11.20
2023-01-26T00:41:22.474Z,12.20
2023-01-26T00:42:22.531Z,11.30
2023-01-26T00:43:22.502Z,10.60
2023-01-26T00:44:22.563Z,11.30
2023-01-26T00:45:22.478Z,11.30
2023-01-26T00:46:22.509Z,10.50
2023-01-26T00:47:22.332Z,11.00
2023-01-26T00:48:24.531Z,10.90
2023-01-26T00:49:22.489Z,10.50
2023-01-26T00:50:22.350Z,11.20
2023-01-26T00:51:22.396Z,11.10
2023-01-26T00:52:22.278Z,11.50
2023-01-26T00:53:22.317Z,11.10
2023-01-26T00:54:22.356Z,11.50
2023-01-26T00:55:22.229Z,11.30
2023-01-26T00:56:22.578Z,12.20
2023-01-26T00:57:22.189Z,11.50
2023-01-26T00:58:22.483Z,12.50
2023-01-26T00:59:22.331Z,11.20
2023-01-26T01:00:22.427Z,11.30
2023-01-26T01:01:22.519Z,12.10
2023-01-26T01:02:22.298Z,11.10
2023-01-26T01:03:22.095Z,11.20
2023-01-26T01:04:22.296Z,12.00
2023-01-26T01:05:22.092Z,10.70
2023-01-26T01:06:22.324Z,12.50
2023-01-26T01:07:22.467Z,11.50
2023-01-26T01:08:22.474Z,11.10
2023-01-26T01:09:22.563Z,12.30
2023-01-26T01:10:22.474Z,12.80
2023-01-26T01:11:22.995Z,11.20
2023-01-26T01:12:22.472Z,11.50
2023-01-26T01:13:21.975Z,13.00
2023-01-26T01:14:21.990Z,12.10
2023-01-26T01:15:21.955Z,13.00
2023-01-26T01:16:22.523Z,11.40
2023-01-26T01:17:22.124Z,11.60
2023-01-26T01:18:22.509Z,12.40
2023-01-26T01:19:21.915Z,12.30
2023-01-26T01:20:22.495Z,11.40
2023-01-26T01:21:21.941Z,11.30
2023-01-26T01:22:21.943Z,11.30
2023-01-26T01:23:21.995Z,12.00
2023-01-26T01:24:21.874Z,12.40
2023-01-26T01:25:21.830Z,10.90
2023-01-26T01:26:21.828Z,11.20
2023-01-26T01:27:21.852Z,12.20
2023-01-26T01:28:21.803Z,11.20
2023-01-26T01:29:21.827Z,10.70
2023-01-26T01:30:22.309Z,11.30
2023-01-26T01:31:22.462Z,11.80
2023-01-26T01:32:21.763Z,11.20
2023-01-26T01:33:21.740Z,12.60
2023-01-26T01:34:21.709Z,12.10
2023-01-26T01:35:21.698Z,11.60
2023-01-26T01:36:21.700Z,11.40
2023-01-26T01:37:22.564Z,12.00
2023-01-26T01:38:22.439Z,12.10
2023-01-26T01:39:21.836Z,11.70
2023-01-26T01:40:22.299Z,12.60
2023-01-26T01:41:21.627Z,12.30
2023-01-26T01:42:21.656Z,12.60
2023-01-26T01:43:21.610Z,10.80
2023-01-26T01:44:21.650Z,12.50
2023-01-26T01:45:21.699Z,12.90
2023-01-26T01:46:22.447Z,11.50
2023-01-26T01:47:21.569Z,12.00
2023-01-26T01:48:21.597Z,12.40
2023-01-26T01:49:21.576Z,12.30
2023-01-26T01:50:21.535Z,11.50
2023-01-26T01:51:21.610Z,12.20
2023-01-26T01:52:21.716Z,11.10
2023-01-26T01:53:21.677Z,11.40
2023-01-26T01:54:21.737Z,13.00
2023-01-26T01:55:21.785Z,11.20
2023-01-26T01:56:21.874Z,11.40
2023-01-26T01:57:21.835Z,12.30
2023-01-26T01:58:21.847Z,12.00
2023-01-26T01:59:21.440Z,11.70
2023-01-26T02:00:21.449Z,11.60
2023-01-26T02:01:21.367Z,11.50
2023-01-26T02:02:22.073Z,10.90
2023-01-26T02:03:21.405Z,10.70
2023-01-26T02:04:21.348Z,10.40
2023-01-26T02:05:21.347Z,10.50
2023-01-26T02:06:21.319Z,9.40
2023-01-26T02:07:21.850Z,9.20
2023-01-26T02:08:22.025Z,9.90
2023-01-26T02:09:22.026Z,8.90
2023-01-26T02:10:22.184Z,10.00
2023-01-26T02:11:22.087Z,9.10
2023-01-26T02:12:21.347Z,9.60
2023-01-26T02:13:21.252Z,10.20
2023-01-26T02:14:21.284Z,8.90
2023-01-26T02:15:21.346Z,10.20
2023-01-26T02:16:21.387Z,10.00
2023-01-26T02:17:21.461Z,11.40
2023-01-26T02:18:21.204Z,9.30
2023-01-26T02:19:21.140Z,8.80
2023-01-26T02:20:21.165Z,9.70
2023-01-26T02:21:21.200Z,9.90
2023-01-26T02:22:21.318Z,9.50
2023-01-26T02:23:21.498Z,10.00
2023-01-26T02:24:21.354Z,10.40
2023-01-26T02:25:21.062Z,10.00
2023-01-26T02:26:21.359Z,9.70
2023-01-26T02:27:21.080Z,10.10
2023-01-26T02:28:21.721Z,9.70
2023-01-26T02:29:21.798Z,10.10
2023-01-26T02:30:21.799Z,13.00
2023-01-26T02:31:21.280Z,11.30
2023-01-26T02:32:21.229Z,9.60
2023-01-26T02:33:21.777Z,10.10
2023-01-26T02:34:20.954Z,10.50
2023-01-26T02:35:21.298Z,10.70
2023-01-26T02:36:21.731Z,10.10
2023-01-26T02:37:21.500Z,9.70
2023-01-26T02:38:21.809Z,10.80
2023-01-26T02:39:20.907Z,10.30
2023-01-26T02:40:21.017Z,10.70
2023-01-26T02:41:20.869Z,12.00
2023-01-26T02:42:20.895Z,11.00
2023-01-26T02:43:20.899Z,10.50
2023-01-26T02:44:21.368Z,9.00
2023-01-26T02:45:21.375Z,8.90
2023-01-26T02:46:20.843Z,10.90
2023-01-26T02:47:20.880Z,9.90
2023-01-26T02:48:20.802Z,8.70
2023-01-26T02:49:20.754Z,8.30
2023-01-26T02:50:20.746Z,9.40
2023-01-26T02:51:21.056Z,9.20
2023-01-26T02:52:20.773Z,9.80
2023-01-26T02:53:20.805Z,8.80
2023-01-26T02:54:21.303Z,9.80
2023-01-26T02:55:21.275Z,10.10
2023-01-26T02:56:20.697Z,10.40
2023-01-26T02:57:21.270Z,10.20
2023-01-26T02:58:20.651Z,10.60
2023-01-26T02:59:20.623Z,10.10
2023-01-26T03:00:20.892Z,11.00
2023-01-26T03:01:20.592Z,9.70
2023-01-26T03:02:21.598Z,10.00
2023-01-26T03:03:20.912Z,11.50
2023-01-26T03:04:21.419Z,10.90
2023-01-26T03:05:20.643Z,9.10
2023-01-26T03:06:20.570Z,10.40
2023-01-26T03:07:20.563Z,8.90
2023-01-26T03:08:21.254Z,10.60
2023-01-26T03:09:21.484Z,9.40
2023-01-26T03:10:20.891Z,9.80
2023-01-26T03:11:20.902Z,9.50
2023-01-26T03:12:21.354Z,10.90
2023-01-26T03:13:21.263Z,10.40
2023-01-26T03:14:20.441Z,10.30
2023-01-26T03:15:20.499Z,9.30
2023-01-26T03:16:20.616Z,10.20
2023-01-26T03:17:20.459Z,9.30
2023-01-26T03:18:20.400Z,9.20
2023-01-26T03:19:20.404Z,10.20
2023-01-26T03:20:20.840Z,9.40
2023-01-26T03:21:20.849Z,9.70
2023-01-26T03:22:20.431Z,10.00
2023-01-26T03:23:20.318Z,9.70
2023-01-26T03:24:20.382Z,9.20
2023-01-26T03:25:20.540Z,10.00
2023-01-26T03:26:20.286Z,8.10
2023-01-26T03:27:20.421Z,8.60
2023-01-26T03:28:20.259Z,9.50
2023-01-26T03:29:20.319Z,8.70
2023-01-26T03:30:21.199Z,10.30
2023-01-26T03:31:21.123Z,9.40
2023-01-26T03:32:20.972Z,9.20
2023-01-26T03:33:20.225Z,8.50
2023-01-26T03:34:20.198Z,9.20
2023-01-26T03:35:20.933Z,10.20
2023-01-26T03:36:21.107Z,8.70
2023-01-26T03:37:20.432Z,10.70
2023-01-26T03:38:20.167Z,9.10
2023-01-26T03:39:20.105Z,9.30
2023-01-26T03:40:20.723Z,8.60
2023-01-26T03:41:20.890Z,10.00
2023-01-26T03:42:20.573Z,8.30
2023-01-26T03:43:20.920Z,9.60
2023-01-26T03:44:20.094Z,9.10
2023-01-26T03:45:20.154Z,8.40
2023-01-26T03:46:20.243Z,10.20
2023-01-26T03:47:20.018Z,8.10
2023-01-26T03:48:20.037Z,8.10
2023-01-26T03:49:20.391Z,7.60
2023-01-26T03:50:20.430Z,8.00
2023-01-26T03:51:19.983Z,8.10
2023-01-26T03:52:19.969Z,10.00
2023-01-26T03:53:19.982Z,8.20
2023-01-26T03:54:20.151Z,7.10
2023-01-26T03:55:20.049Z,7.40
2023-01-26T03:56:19.943Z,8.80
2023-01-26T03:57:19.909Z,7.70
2023-01-26T03:58:20.442Z,8.30
2023-01-26T03:59:19.984Z,8.10
2023-01-26T04:00:20.492Z,8.20
2023-01-26T04:01:20.165Z,7.70
2023-01-26T04:02:19.946Z,8.00
2023-01-26T04:03:19.920Z,7.60
2023-01-26T04:04:20.710Z,7.80
2023-01-26T04:05:20.050Z,8.40
2023-01-26T04:06:20.297Z,8.10
2023-01-26T04:07:19.938Z,8.10
2023-01-26T04:08:20.430Z,8.30
2023-01-26T04:09:20.077Z,8.60
2023-01-26T04:10:19.750Z,9.00
2023-01-26T04:11:19.731Z,7.20
2023-01-26T04:12:19.712Z,8.00
2023-01-26T04:13:19.728Z,8.80
2023-01-26T04:14:19.813Z,9.00
2023-01-26T04:15:19.874Z,9.50
2023-01-26T04:16:19.909Z,8.30
2023-01-26T04:17:19.949Z,9.50
2023-01-26T04:18:19.945Z,9.20
2023-01-26T04:19:19.622Z,8.90
2023-01-26T04:20:20.127Z,9.10
2023-01-26T04:21:19.597Z,9.40
2023-01-26T04:22:19.576Z,9.00
2023-01-26T04:23:19.584Z,8.80
2023-01-26T04:24:20.279Z,9.20
2023-01-26T04:25:19.673Z,8.90
2023-01-26T04:26:20.086Z,9.40
2023-01-26T04:27:19.657Z,7.50
2023-01-26T04:28:20.026Z,7.90
2023-01-26T04:29:19.926Z,9.30
2023-01-26T04:30:20.328Z,9.80
2023-01-26T04:31:19.491Z,9.50
2023-01-26T04:32:19.445Z,8.40
2023-01-26T04:33:19.478Z,9.70
2023-01-26T04:34:19.458Z,11.00
2023-01-26T04:35:19.677Z,8.80
2023-01-26T04:36:19.971Z,10.60
2023-01-26T04:37:19.383Z,8.90
2023-01-26T04:38:19.393Z,8.10
2023-01-26T04:39:19.708Z,8.80
2023-01-26T04:40:19.414Z,8.80
2023-01-26T04:41:19.335Z,8.40
2023-01-26T04:42:19.354Z,9.20
2023-01-26T04:43:19.339Z,9.60
2023-01-26T04:44:19.491Z,10.70
2023-01-26T04:45:19.310Z,8.60
2023-01-26T04:46:19.621Z,9.50
2023-01-26T04:47:19.370Z,8.40
2023-01-26T04:48:19.749Z,8.80
2023-01-26T04:49:19.386Z,9.30
2023-01-26T04:50:19.858Z,8.90
2023-01-26T04:51:19.386Z,8.70
2023-01-26T04:52:19.940Z,10.10
2023-01-26T04:53:19.410Z,9.40
2023-01-26T04:54:19.528Z,10.60
2023-01-26T04:55:19.409Z,8.30
2023-01-26T04:56:19.762Z,11.00
2023-01-26T04:57:19.523Z,9.00
2023-01-26T04:58:19.199Z,9.30
2023-01-26T04:59:19.451Z,9.50
2023-01-26T05:00:19.963Z,8.80
2023-01-26T05:01:19.605Z,8.30
2023-01-26T05:02:19.985Z,10.10
2023-01-26T05:03:19.449Z,9.30
2023-01-26T05:04:19.521Z,10.50
2023-01-26T05:05:19.725Z,9.50
2023-01-26T05:06:19.901Z,9.50
2023-01-26T05:07:19.480Z,9.80
2023-01-26T05:08:20.877Z,9.10
2023-01-26T05:09:18.976Z,8.80
2023-01-26T05:10:18.966Z,10.40
2023-01-26T05:11:19.024Z,9.70
2023-01-26T05:12:19.112Z,10.40
2023-01-26T05:13:19.129Z,10.20
2023-01-26T05:14:18.966Z,11.70
2023-01-26T05:15:19.236Z,9.40
2023-01-26T05:16:19.386Z,9.40
2023-01-26T05:17:19.346Z,8.90
2023-01-26T05:18:19.405Z,10.30
2023-01-26T05:19:18.885Z,12.00
2023-01-26T05:20:19.029Z,9.40
2023-01-26T05:21:18.927Z,9.00
2023-01-26T05:22:18.985Z,9.90
2023-01-26T05:23:18.916Z,9.70
2023-01-26T05:24:18.819Z,9.50
2023-01-26T05:25:19.070Z,10.30
2023-01-26T05:26:19.002Z,9.60
2023-01-26T05:27:18.936Z,10.50
2023-01-26T05:28:20.035Z,9.50
2023-01-26T05:29:18.932Z,8.80
2023-01-26T05:30:19.523Z,9.20
2023-01-26T05:31:19.046Z,9.40
2023-01-26T05:32:19.168Z,9.30
2023-01-26T05:33:18.951Z,10.20
2023-01-26T05:34:19.504Z,9.60
2023-01-26T05:35:18.667Z,10.30
2023-01-26T05:36:19.460Z,10.50
2023-01-26T05:37:18.675Z,8.60
2023-01-26T05:38:19.995Z,10.50
2023-01-26T05:39:18.582Z,10.70
2023-01-26T05:40:18.622Z,11.00
2023-01-26T05:41:18.773Z,10.10
2023-01-26T05:42:18.562Z,11.40
2023-01-26T05:43:18.581Z,9.20
2023-01-26T05:44:18.588Z,9.50
2023-01-26T05:45:18.707Z,8.90
2023-01-26T05:46:18.519Z,8.20
2023-01-26T05:47:18.518Z,8.90
2023-01-26T05:48:18.525Z,9.30
2023-01-26T05:49:18.568Z,10.10
2023-01-26T05:50:18.525Z,9.50
2023-01-26T05:51:18.796Z,8.80
2023-01-26T05:52:19.320Z,9.90
2023-01-26T05:53:18.827Z,9.00
2023-01-26T05:54:19.058Z,9.90
2023-01-26T05:55:18.859Z,9.10
2023-01-26T05:56:19.181Z,10.60
2023-01-26T05:57:18.657Z,9.90
2023-01-26T05:58:18.431Z,9.50
2023-01-26T05:59:18.376Z,9.90
2023-01-26T06:00:19.369Z,9.50
2023-01-26T06:01:19.162Z,10.30
2023-01-26T06:02:19.508Z,9.70
2023-01-26T06:03:19.944Z,9.60
2023-01-26T06:04:19.649Z,9.10
2023-01-26T06:05:18.955Z,9.30
2023-01-26T06:06:18.318Z,8.70
2023-01-26T06:07:18.245Z,9.30
2023-01-26T06:08:18.278Z,9.00
2023-01-26T06:09:18.215Z,9.60
2023-01-26T06:10:18.235Z,9.10
2023-01-26T06:11:18.184Z,9.40
2023-01-26T06:12:18.284Z,9.30
2023-01-26T06:13:18.353Z,9.60
2023-01-26T06:14:18.476Z,9.80
2023-01-26T06:15:18.173Z,9.50
2023-01-26T06:16:18.541Z,10.00
2023-01-26T06:17:18.224Z,9.10
2023-01-26T06:18:18.152Z,8.90
2023-01-26T06:19:18.212Z,9.40
2023-01-26T06:20:18.583Z,11.30
2023-01-26T06:21:18.310Z,9.60
2023-01-26T06:22:18.064Z,9.20
2023-01-26T06:23:18.322Z,10.30
2023-01-26T06:24:18.164Z,9.40
2023-01-26T06:25:18.047Z,10.80
2023-01-26T06:26:18.029Z,9.50
2023-01-26T06:27:18.033Z,10.70
2023-01-26T06:28:17.995Z,10.40
2023-01-26T06:29:18.051Z,10.70
2023-01-26T06:30:18.640Z,11.30
2023-01-26T06:31:18.135Z,10.00
2023-01-26T06:32:17.980Z,11.10
2023-01-26T06:33:17.923Z,11.50
2023-01-26T06:34:18.243Z,9.40
2023-01-26T06:35:18.042Z,9.30
2023-01-26T06:36:18.571Z,10.20
2023-01-26T06:37:18.065Z,10.40
2023-01-26T06:38:18.644Z,10.70
2023-01-26T06:39:17.809Z,10.10
2023-01-26T06:40:17.861Z,11.50
2023-01-26T06:41:17.893Z,12.00
2023-01-26T06:42:17.948Z,10.70
2023-01-26T06:43:17.778Z,10.40
2023-01-26T06:44:17.855Z,11.10
2023-01-26T06:45:18.157Z,10.60
2023-01-26T06:46:18.141Z,10.90
2023-01-26T06:47:18.130Z,11.90
2023-01-26T06:48:17.646Z,10.60
2023-01-26T06:49:17.679Z,10.00
2023-01-26T06:50:18.398Z,10.00
2023-01-26T06:51:17.616Z,10.10
2023-01-26T06:52:17.603Z,11.20
2023-01-26T06:53:18.286Z,10.60
2023-01-26T06:54:18.060Z,11.50
2023-01-26T06:55:17.561Z,10.80
2023-01-26T06:56:17.567Z,9.70
2023-01-26T06:57:17.569Z,10.90
2023-01-26T06:58:17.555Z,10.70
2023-01-26T06:59:17.555Z,9.90
2023-01-26T07:00:17.646Z,11.40
2023-01-26T07:01:17.617Z,11.50
2023-01-26T07:02:17.582Z,9.60
2023-01-26T07:03:17.546Z,12.40
2023-01-26T07:04:18.083Z,10.60
2023-01-26T07:05:17.444Z,10.80
2023-01-26T07:06:17.407Z,10.50
2023-01-26T07:07:17.439Z,9.20
2023-01-26T07:08:17.814Z,10.50
2023-01-26T07:09:17.482Z,10.20
2023-01-26T07:10:17.412Z,11.00
2023-01-26T07:11:17.468Z,10.80
2023-01-26T07:12:17.406Z,10.90
2023-01-26T07:13:17.413Z,9.30
2023-01-26T07:14:17.414Z,10.90
2023-01-26T07:15:17.409Z,10.10
2023-01-26T07:16:17.428Z,10.60
2023-01-26T07:17:17.417Z,10.50
2023-01-26T07:18:17.414Z,11.00
2023-01-26T07:19:17.406Z,11.40
2023-01-26T07:20:17.418Z,10.40
2023-01-26T07:21:17.460Z,11.00
2023-01-26T07:22:17.580Z,10.90
2023-01-26T07:23:17.411Z,12.00
2023-01-26T07:24:17.474Z,11.30
2023-01-26T07:25:17.412Z,10.40
2023-01-26T07:26:17.409Z,11.10
2023-01-26T07:27:17.409Z,10.40
2023-01-26T07:28:17.417Z,12.20
2023-01-26T07:29:17.237Z,10.80
2023-01-26T07:30:17.133Z,10.20
2023-01-26T07:31:17.620Z,9.60
2023-01-26T07:32:17.384Z,9.60
2023-01-26T07:33:17.418Z,11.40
2023-01-26T07:34:17.418Z,9.90
2023-01-26T07:35:17.191Z,10.70
2023-01-26T07:36:17.407Z,9.50
2023-01-26T07:37:17.025Z,11.40
2023-01-26T07:38:17.076Z,9.50
2023-01-26T07:39:16.991Z,8.90
2023-01-26T07:40:16.986Z,10.10
2023-01-26T07:41:16.965Z,9.20
2023-01-26T07:42:16.966Z,10.00
2023-01-26T07:43:16.963Z,9.00
2023-01-26T07:44:16.999Z,9.60
2023-01-26T07:45:16.937Z,9.10
2023-01-26T07:46:17.544Z,9.90
2023-01-26T07:47:17.425Z,10.10
2023-01-26T07:48:17.014Z,9.60
2023-01-26T07:49:16.904Z,10.90
2023-01-26T07:50:17.111Z,10.50
2023-01-26T07:51:17.094Z,10.90
2023-01-26T07:52:17.113Z,11.20
2023-01-26T07:53:17.165Z,12.30
2023-01-26T07:54:17.160Z,12.20
2023-01-26T07:55:17.475Z,10.80
2023-01-26T07:56:18.217Z,10.80
2023-01-26T07:57:16.868Z,10.30
2023-01-26T07:58:17.414Z,10.70
2023-01-26T07:59:17.414Z,11.10
2023-01-26T08:00:17.414Z,9.90
2023-01-26T08:01:17.438Z,10.20
2023-01-26T08:02:17.317Z,10.80
2023-01-26T08:03:17.427Z,9.90
2023-01-26T08:04:16.723Z,11.70
2023-01-26T08:05:16.741Z,10.80
2023-01-26T08:06:16.709Z,10.50
2023-01-26T08:07:16.774Z,10.70
2023-01-26T08:08:16.841Z,10.70
2023-01-26T08:09:16.890Z,9.80
2023-01-26T08:10:16.633Z,9.00
2023-01-26T08:11:17.411Z,10.60
2023-01-26T08:12:17.041Z,9.40
2023-01-26T08:13:21.041Z,11.00
2023-01-26T08:14:17.587Z,10.70
2023-01-26T08:15:17.226Z,10.30
2023-01-26T08:16:16.628Z,11.60
2023-01-26T08:17:16.538Z,11.30
2023-01-26T08:18:17.343Z,9.90
2023-01-26T08:19:16.667Z,9.90
2023-01-26T08:20:17.130Z,10.70
2023-01-26T08:21:17.243Z,11.70
2023-01-26T08:22:16.460Z,10.80
2023-01-26T08:23:16.434Z,9.60
2023-01-26T08:24:17.290Z,10.00
2023-01-26T08:25:16.748Z,8.60
2023-01-26T08:26:16.680Z,9.70
2023-01-26T08:27:17.235Z,9.70
2023-01-26T08:28:16.388Z,9.70
2023-01-26T08:29:17.279Z,9.70
2023-01-26T08:30:16.618Z,11.40
2023-01-26T08:31:16.425Z,13.60
2023-01-26T08:32:17.204Z,12.30
2023-01-26T08:33:17.135Z,12.50
2023-01-26T08:34:16.481Z,11.50
2023-01-26T08:35:16.346Z,10.90
2023-01-26T08:36:16.410Z,10.90
2023-01-26T08:37:16.475Z,10.60
2023-01-26T08:38:16.303Z,10.40
2023-01-26T08:39:16.552Z,10.20
2023-01-26T08:40:16.626Z,11.50
2023-01-26T08:41:16.659Z,10.50
2023-01-26T08:42:16.242Z,10.00
2023-01-26T08:43:16.325Z,12.30
2023-01-26T08:44:16.844Z,11.80
2023-01-26T08:45:16.178Z,11.50
2023-01-26T08:46:16.184Z,10.50
2023-01-26T08:47:17.007Z,10.70
2023-01-26T08:48:17.089Z,11.20
2023-01-26T08:49:16.585Z,9.20
2023-01-26T08:50:16.694Z,10.30
2023-01-26T08:51:16.973Z,11.00
2023-01-26T08:52:16.863Z,9.50
2023-01-26T08:53:16.153Z,10.60
2023-01-26T08:54:16.941Z,10.10
2023-01-26T08:55:16.032Z,10.60
2023-01-26T08:56:16.033Z,11.10
2023-01-26T08:57:16.902Z,9.90
2023-01-26T08:58:16.547Z,11.10
2023-01-26T08:59:16.043Z,10.70
2023-01-26T09:00:16.138Z,10.10
2023-01-26T09:01:16.053Z,10.80
2023-01-26T09:02:16.138Z,10.40
2023-01-26T09:03:15.991Z,9.50
2023-01-26T09:04:15.952Z,9.80
2023-01-26T09:05:16.000Z,11.00
2023-01-26T09:06:15.907Z,10.80
2023-01-26T09:07:15.880Z,10.30
2023-01-26T09:08:16.269Z,9.20
2023-01-26T09:09:16.216Z,9.50
2023-01-26T09:10:15.999Z,10.30
2023-01-26T09:11:16.291Z,9.50
2023-01-26T09:12:16.140Z,10.50
2023-01-26T09:13:16.211Z,9.40
2023-01-26T09:14:16.167Z,10.90
2023-01-26T09:15:15.795Z,10.00
2023-01-26T09:16:16.051Z,9.50
2023-01-26T09:17:16.680Z,10.20
2023-01-26T09:18:15.929Z,11.00
2023-01-26T09:19:15.850Z,9.50
2023-01-26T09:20:15.898Z,10.00
2023-01-26T09:21:15.789Z,9.40
2023-01-26T09:22:15.679Z,9.10
2023-01-26T09:23:15.691Z,9.10
2023-01-26T09:24:16.255Z,9.70
2023-01-26T09:25:16.425Z,9.40
2023-01-26T09:26:17.108Z,9.50
2023-01-26T09:27:16.110Z,9.10
2023-01-26T09:28:15.705Z,8.70
2023-01-26T09:29:15.667Z,10.10
2023-01-26T09:30:17.277Z,10.00
2023-01-26T09:31:16.030Z,8.70
2023-01-26T09:32:15.685Z,10.20
2023-01-26T09:33:15.557Z,10.40
2023-01-26T09:34:15.643Z,10.10
2023-01-26T09:35:15.971Z,9.80
2023-01-26T09:36:15.681Z,10.50
2023-01-26T09:37:15.736Z,9.20
2023-01-26T09:38:15.657Z,9.30
2023-01-26T09:39:15.825Z,9.00
2023-01-26T09:40:15.895Z,9.10
2023-01-26T09:41:15.677Z,9.20
2023-01-26T09:42:16.074Z,9.10
2023-01-26T09:43:15.775Z,8.70
2023-01-26T09:44:15.454Z,10.00
2023-01-26T09:45:16.139Z,10.00
2023-01-26T09:46:16.241Z,8.90
2023-01-26T09:47:16.196Z,9.00
2023-01-26T09:48:15.598Z,9.30
2023-01-26T09:49:15.397Z,8.20
2023-01-26T09:50:15.806Z,9.50
2023-01-26T09:51:16.103Z,8.70
2023-01-26T09:52:16.247Z,9.20
2023-01-26T09:53:15.460Z,7.70
2023-01-26T09:54:16.084Z,9.60
2023-01-26T09:55:15.969Z,8.90
2023-01-26T09:56:16.102Z,9.50
2023-01-26T09:57:15.223Z,10.50
2023-01-26T09:58:15.215Z,8.80
2023-01-26T09:59:15.210Z,8.10
2023-01-26T10:00:15.909Z,8.10
2023-01-26T10:01:15.709Z,8.00
2023-01-26T10:02:16.097Z,8.10
2023-01-26T10:03:15.143Z,8.70
2023-01-26T10:04:15.220Z,7.90
2023-01-26T10:05:15.300Z,8.00
2023-01-26T10:06:15.202Z,7.20
2023-01-26T10:07:15.226Z,7.90
2023-01-26T10:08:15.089Z,8.20
2023-01-26T10:09:15.210Z,8.40
2023-01-26T10:10:15.585Z,8.60
2023-01-26T10:11:15.272Z,7.90
2023-01-26T10:12:15.670Z,8.10
2023-01-26T10:13:15.740Z,7.80
2023-01-26T10:14:15.809Z,7.90
2023-01-26T10:15:15.817Z,8.20
2023-01-26T10:16:15.737Z,7.60
2023-01-26T10:17:15.218Z,8.00
2023-01-26T10:18:15.329Z,8.30
2023-01-26T10:19:15.691Z,8.30
2023-01-26T10:20:15.541Z,8.30
2023-01-26T10:21:15.219Z,6.40
2023-01-26T10:22:15.027Z,9.10
2023-01-26T10:23:15.760Z,8.10
2023-01-26T10:24:14.985Z,7.40
2023-01-26T10:25:14.988Z,7.60
2023-01-26T10:26:14.858Z,7.80
2023-01-26T10:27:15.775Z,7.90
2023-01-26T10:28:15.598Z,8.20
2023-01-26T10:29:14.824Z,7.00
2023-01-26T10:30:15.697Z,8.10
2023-01-26T10:31:15.722Z,7.80
2023-01-26T10:32:14.785Z,7.90
2023-01-26T10:33:16.457Z,8.70
2023-01-26T10:34:14.762Z,8.40
2023-01-26T10:35:14.934Z,8.30
2023-01-26T10:36:14.815Z,7.60
2023-01-26T10:37:15.014Z,6.50
2023-01-26T10:38:14.735Z,6.90
2023-01-26T10:39:15.700Z,8.10
2023-01-26T10:40:15.207Z,7.70
2023-01-26T10:41:15.245Z,7.50
2023-01-26T10:42:15.235Z,7.60
2023-01-26T10:43:15.235Z,7.30
2023-01-26T10:44:14.729Z,6.50
2023-01-26T10:45:15.012Z,7.70
2023-01-26T10:46:14.752Z,7.70
2023-01-26T10:47:14.582Z,7.10
2023-01-26T10:48:14.740Z,7.70
2023-01-26T10:49:14.820Z,6.60
2023-01-26T10:50:14.644Z,7.50
2023-01-26T10:51:15.823Z,6.90
2023-01-26T10:52:15.339Z,7.20
2023-01-26T10:53:14.771Z,7.80
2023-01-26T10:54:15.240Z,6.10
2023-01-26T10:55:14.818Z,6.30
2023-01-26T10:56:15.210Z,8.00
2023-01-26T10:57:15.381Z,7.20
2023-01-26T10:58:14.571Z,8.00
2023-01-26T10:59:14.467Z,7.00
2023-01-26T11:00:14.751Z,7.00
2023-01-26T11:01:15.024Z,6.30
2023-01-26T11:02:14.482Z,6.40
2023-01-26T11:03:15.404Z,7.20
2023-01-26T11:04:14.619Z,6.40
2023-01-26T11:05:14.725Z,7.30
2023-01-26T11:06:14.705Z,7.00
2023-01-26T11:07:14.780Z,6.70
2023-01-26T11:08:14.763Z,6.40
2023-01-26T11:09:14.752Z,6.20
2023-01-26T11:10:14.861Z,6.10
2023-01-26T11:11:14.321Z,5.30
2023-01-26T11:12:15.990Z,6.60
2023-01-26T11:13:14.251Z,6.20
2023-01-26T11:14:14.275Z,6.70
2023-01-26T11:15:14.248Z,7.10
2023-01-26T11:16:14.396Z,6.50
2023-01-26T11:17:14.256Z,6.60
2023-01-26T11:18:14.253Z,6.50
2023-01-26T11:19:14.256Z,6.90
2023-01-26T11:20:14.254Z,6.40
2023-01-26T11:21:14.242Z,5.70
2023-01-26T11:22:14.263Z,6.70
2023-01-26T11:23:14.251Z,5.30
2023-01-26T11:24:14.293Z,5.70
2023-01-26T11:25:14.293Z,6.10
2023-01-26T11:26:14.266Z,5.40
2023-01-26T11:27:14.317Z,6.20
2023-01-26T11:28:14.245Z,6.40
2023-01-26T11:29:14.247Z,5.80
2023-01-26T11:30:14.256Z,6.70
2023-01-26T11:31:14.176Z,6.30
2023-01-26T11:32:14.088Z,5.90
2023-01-26T11:33:14.262Z,6.50
2023-01-26T11:34:14.001Z,5.50
2023-01-26T11:35:14.508Z,5.90
2023-01-26T11:36:14.247Z,6.90
2023-01-26T11:37:14.282Z,5.90
2023-01-26T11:38:14.247Z,6.30
2023-01-26T11:39:14.033Z,5.70
2023-01-26T11:40:14.334Z,6.40
2023-01-26T11:41:14.258Z,6.30
2023-01-26T11:42:14.227Z,5.40
2023-01-26T11:43:14.260Z,5.00
2023-01-26T11:44:14.069Z,5.40
2023-01-26T11:45:14.342Z,4.80
2023-01-26T11:46:14.262Z,5.30
2023-01-26T11:47:14.259Z,5.10
2023-01-26T11:48:14.250Z,5.50
2023-01-26T11:49:13.897Z,5.60
2023-01-26T11:50:14.074Z,5.90
2023-01-26T11:51:14.261Z,5.60
2023-01-26T11:52:14.207Z,5.20
2023-01-26T11:53:14.292Z,5.20
2023-01-26T11:54:14.234Z,5.20
2023-01-26T11:55:14.839Z,4.50
2023-01-26T11:56:14.234Z,6.10
2023-01-26T11:57:14.315Z,5.10
2023-01-26T11:58:14.242Z,5.20
2023-01-26T11:59:14.249Z,4.60
2023-01-26T12:00:28.663Z,5.20
2023-01-26T12:01:14.794Z,4.90
2023-01-26T12:02:13.762Z,5.70
2023-01-26T12:03:13.811Z,6.30
2023-01-26T12:04:13.815Z,5.90
2023-01-26T12:05:14.127Z,5.60
2023-01-26T12:06:13.968Z,6.20
2023-01-26T12:07:14.023Z,5.00
2023-01-26T12:08:13.773Z,5.00
2023-01-26T12:09:13.799Z,5.60
2023-01-26T12:10:13.579Z,5.10
2023-01-26T12:11:14.271Z,5.00
2023-01-26T12:12:14.251Z,5.40
2023-01-26T12:13:13.801Z,4.70
2023-01-26T12:14:14.250Z,5.40
2023-01-26T12:15:13.896Z,7.60
2023-01-26T12:16:14.229Z,6.80
2023-01-26T12:17:18.327Z,6.00
2023-01-26T12:18:14.643Z,5.10
2023-01-26T12:19:14.163Z,7.00
2023-01-26T12:20:13.396Z,6.30
2023-01-26T12:21:13.420Z,6.40
2023-01-26T12:22:14.135Z,6.30
2023-01-26T12:23:13.347Z,6.70
2023-01-26T12:24:39.277Z,5.70
2023-01-26T12:25:19.349Z,6.00
2023-01-26T12:26:14.830Z,5.70
2023-01-26T12:27:14.088Z,6.60
2023-01-26T12:28:13.573Z,5.70
2023-01-26T12:29:13.282Z,13.30
2023-01-26T12:30:13.385Z,8.40
2023-01-26T12:31:13.535Z,7.00
2023-01-26T12:32:13.518Z,8.70
2023-01-26T12:33:13.250Z,7.40
2023-01-26T12:34:13.568Z,6.80
2023-01-26T12:35:13.821Z,6.00
2023-01-26T12:36:13.308Z,6.90
2023-01-26T12:37:13.455Z,6.10
2023-01-26T12:38:18.350Z,6.30
2023-01-26T12:39:13.318Z,5.80
2023-01-26T12:40:13.311Z,7.40
2023-01-26T12:41:13.838Z,6.10
2023-01-26T12:42:14.000Z,5.40
2023-01-26T12:43:13.335Z,5.10
2023-01-26T12:44:13.654Z,5.60
2023-01-26T12:45:14.033Z,4.90
2023-01-26T12:46:13.142Z,4.70
2023-01-26T12:47:13.771Z,5.30
2023-01-26T12:48:13.034Z,4.90
2023-01-26T12:49:13.329Z,5.20
2023-01-26T12:50:13.466Z,5.00
2023-01-26T12:51:13.896Z,5.10
2023-01-26T12:52:13.795Z,4.70
2023-01-26T12:53:13.705Z,5.00
2023-01-26T12:54:13.865Z,4.10
2023-01-26T12:55:13.439Z,6.20
2023-01-26T12:56:12.957Z,5.80
2023-01-26T12:57:12.895Z,4.90
2023-01-26T12:58:12.906Z,5.20
2023-01-26T12:59:14.816Z,4.60
2023-01-26T13:00:14.310Z,4.70
2023-01-26T13:01:13.052Z,5.40
2023-01-26T13:02:12.878Z,4.60
2023-01-26T13:03:13.154Z,5.50
2023-01-26T13:04:12.842Z,5.40
2023-01-26T13:05:12.833Z,4.60
2023-01-26T13:06:12.914Z,5.60
2023-01-26T13:07:12.844Z,5.30